Time;durP1;ratioP1;P1;durP2;ratioP2;P2;SDS_P1;SDS_P2;PMS_P1;PMS_P2;Temp;Humidity;BMP_temperature;BMP_pressure;BME280_temperature;BME280_humidity;BME280_pressure;Samples;Min_cycle;Max_cycle;Signal;HPM_P1;HPM_P2
2023/01/01 00:03:20;;;;;;;6.20;3.80;;;;;;;;;;10376647;28;20242;-64
2023/01/01 00:08:20;;;;;;;6.65;3.22;;;;;;;;;;10378491;28;21597;-63
2023/01/01 00:13:20;;;;;;;3.97;2.53;;;;;;;;;;10385250;28;20200;-64
2023/01/01 00:18:20;;;;;;;4.85;3.00;;;;;;;;;;10382366;28;20217;-62
2023/01/01 00:23:21;;;;;;;4.15;2.50;;;;;;;;;;10380380;28;20215;-64
2023/01/01 00:28:21;;;;;;;2.78;2.38;;;;;;;;;;10382047;28;20209;-63
2023/01/01 00:33:21;;;;;;;3.33;2.83;;;;;;;;;;10384235;28;20208;-64
2023/01/01 00:38:21;;;;;;;5.32;2.88;;;;;;;;;;10383325;28;20872;-64
2023/01/01 00:43:21;;;;;;;6.03;2.22;;;;;;;;;;10387014;28;20212;-63
2023/01/01 00:48:21;;;;;;;2.30;2.00;;;;;;;;;;10380019;28;21674;-63
2023/01/01 00:53:22;;;;;;;3.60;2.30;;;;;;;;;;10380945;28;21180;-64
2023/01/01 00:58:23;;;;;;;4.35;2.65;;;;;;;;;;10379756;28;20216;-64
2023/01/01 01:03:29;;;;;;;2.40;2.08;;;;;;;;;;10365628;28;20287;-64
2023/01/01 01:08:31;;;;;;;4.75;2.80;;;;;;;;;;10380285;28;20240;-63
2023/01/01 01:13:31;;;;;;;2.05;1.48;;;;;;;;;;10379971;28;20201;-63
2023/01/01 01:18:32;;;;;;;2.65;1.60;;;;;;;;;;10380043;28;20281;-63
2023/01/01 01:23:32;;;;;;;4.10;1.60;;;;;;;;;;10381391;28;20212;-63
2023/01/01 01:28:32;;;;;;;1.27;1.17;;;;;;;;;;10378882;28;20216;-63
2023/01/01 01:33:33;;;;;;;5.00;1.70;;;;;;;;;;10379369;28;20215;-63
2023/01/01 01:38:33;;;;;;;2.13;1.80;;;;;;;;;;10379076;28;20780;-63
2023/01/01 01:43:33;;;;;;;1.55;1.05;;;;;;;;;;10379138;28;20205;-63
2023/01/01 01:48:36;;;;;;;1.88;1.38;;;;;;;;;;10381532;28;20242;-63
2023/01/01 01:53:38;;;;;;;2.15;1.40;;;;;;;;;;10380118;28;20251;-63
2023/01/01 01:58:38;;;;;;;3.58;1.60;;;;;;;;;;10377926;28;20304;-62
2023/01/01 02:03:56;;;;;;;3.50;1.73;;;;;;;;;;10379946;28;20774;-63
2023/01/01 02:08:57;;;;;;;7.53;2.92;;;;;;;;;;10385385;28;20367;-63
2023/01/01 02:13:58;;;;;;;4.93;1.90;;;;;;;;;;10402156;23;20620;-64
2023/01/01 02:18:58;;;;;;;6.15;3.08;;;;;;;;;;10369017;28;20190;-63
2023/01/01 02:24:13;;;;;;;4.63;1.40;;;;;;;;;;10366054;28;20308;-64
2023/01/01 02:29:16;;;;;;;5.72;1.65;;;;;;;;;;10368462;28;20189;-64
2023/01/01 02:34:19;;;;;;;11.57;5.00;;;;;;;;;;10365206;28;20208;-63
2023/01/01 02:39:21;;;;;;;7.38;1.70;;;;;;;;;;10405132;28;20287;-64
2023/01/01 02:44:23;;;;;;;4.80;2.28;;;;;;;;;;10407471;28;20595;-63
2023/01/01 02:49:24;;;;;;;4.25;1.88;;;;;;;;;;10408458;28;20189;-63
2023/01/01 02:54:29;;;;;;;5.43;2.10;;;;;;;;;;10407495;28;20216;-63
2023/01/01 03:05:17;;;;;;;8.25;2.42;;;;;;;;;;10406907;28;20216;-62
2023/01/01 03:10:20;;;;;;;6.55;1.80;;;;;;;;;;10408461;28;20624;-63
2023/01/01 03:15:26;;;;;;;3.30;1.60;;;;;;;;;;10407666;28;20294;-64
2023/01/01 03:20:29;;;;;;;7.90;2.90;;;;;;;;;;10405885;28;20192;-64
2023/01/01 03:25:32;;;;;;;4.10;1.98;;;;;;;;;;10406014;28;20213;-63
2023/01/01 03:30:34;;;;;;;8.65;2.67;;;;;;;;;;10406928;28;20666;-64
2023/01/01 03:35:37;;;;;;;7.45;2.67;;;;;;;;;;10405320;28;20205;-65
2023/01/01 03:40:38;;;;;;;9.20;3.17;;;;;;;;;;10405781;28;20266;-64
2023/01/01 03:45:40;;;;;;;10.82;2.42;;;;;;;;;;10406082;28;20212;-63
2023/01/01 03:50:57;;;;;;;9.85;2.50;;;;;;;;;;10404976;28;20196;-63
2023/01/01 03:56:14;;;;;;;7.00;2.63;;;;;;;;;;10405973;28;20200;-64
2023/01/01 04:01:32;;;;;;;12.77;2.40;;;;;;;;;;10405300;28;20220;-63
2023/01/01 04:06:32;;;;;;;6.85;1.65;;;;;;;;;;10361460;28;20565;-63
2023/01/01 04:16:52;;;;;;;8.32;2.20;;;;;;;;;;10357975;28;20213;-63
2023/01/01 04:21:52;;;;;;;4.65;2.08;;;;;;;;;;10356704;28;20224;-64
2023/01/01 04:26:53;;;;;;;3.58;1.83;;;;;;;;;;10357477;28;20571;-64
2023/01/01 04:31:53;;;;;;;8.38;1.98;;;;;;;;;;10363165;28;20217;-63
2023/01/01 04:36:53;;;;;;;4.68;2.20;;;;;;;;;;10365643;28;20194;-64
2023/01/01 04:41:53;;;;;;;12.27;2.42;;;;;;;;;;10398769;28;20641;-64
2023/01/01 04:46:53;;;;;;;10.38;2.97;;;;;;;;;;10405541;28;20257;-64
2023/01/01 04:51:54;;;;;;;11.43;2.33;;;;;;;;;;10405631;28;20201;-64
2023/01/01 04:56:54;;;;;;;6.40;2.90;;;;;;;;;;10405108;28;20196;-64
2023/01/01 05:01:54;;;;;;;11.73;2.40;;;;;;;;;;10407129;28;20220;-63
2023/01/01 05:06:54;;;;;;;19.35;2.45;;;;;;;;;;10411875;28;20195;-64
2023/01/01 05:11:54;;;;;;;9.48;2.20;;;;;;;;;;10412385;28;20782;-64
2023/01/01 05:16:55;;;;;;;6.90;2.20;;;;;;;;;;10411000;28;20212;-64
2023/01/01 05:21:55;;;;;;;8.40;2.13;;;;;;;;;;10410928;28;20304;-64
2023/01/01 05:26:55;;;;;;;10.35;2.70;;;;;;;;;;10411585;28;20680;-63
2023/01/01 05:31:55;;;;;;;14.40;3.10;;;;;;;;;;10410677;28;20266;-64
2023/01/01 05:36:56;;;;;;;11.82;2.67;;;;;;;;;;10411990;28;20304;-63
2023/01/01 05:41:56;;;;;;;9.77;2.22;;;;;;;;;;10410814;28;20227;-63
2023/01/01 05:46:56;;;;;;;8.95;2.30;;;;;;;;;;10410454;28;20192;-62
2023/01/01 05:51:57;;;;;;;8.88;2.20;;;;;;;;;;10410941;28;20302;-61
2023/01/01 05:56:57;;;;;;;6.60;2.63;;;;;;;;;;10410032;28;20177;-62
2023/01/01 06:01:57;;;;;;;6.13;2.38;;;;;;;;;;10409348;28;20706;-64
2023/01/01 06:06:57;;;;;;;7.20;2.08;;;;;;;;;;10409820;28;20181;-62
2023/01/01 06:11:57;;;;;;;4.70;2.00;;;;;;;;;;10410430;28;20255;-63
2023/01/01 06:16:57;;;;;;;5.18;2.10;;;;;;;;;;10408710;28;20235;-62
2023/01/01 06:21:58;;;;;;;5.82;2.22;;;;;;;;;;10409352;28;20219;-63
2023/01/01 06:26:58;;;;;;;5.70;2.38;;;;;;;;;;10407863;28;20196;-62
2023/01/01 06:31:58;;;;;;;5.95;2.92;;;;;;;;;;10408390;28;20205;-63
2023/01/01 06:36:59;;;;;;;5.93;2.55;;;;;;;;;;10407750;28;20192;-63
2023/01/01 06:41:59;;;;;;;11.65;2.65;;;;;;;;;;10408453;28;20220;-63
2023/01/01 06:46:59;;;;;;;7.68;2.78;;;;;;;;;;10408087;28;20197;-64
2023/01/01 06:51:59;;;;;;;9.50;2.75;;;;;;;;;;10407419;28;20212;-64
2023/01/01 06:56:59;;;;;;;7.63;2.58;;;;;;;;;;10407595;28;20185;-63
2023/01/01 07:01:59;;;;;;;5.30;2.78;;;;;;;;;;10407228;28;20729;-62
2023/01/01 07:07:00;;;;;;;4.28;2.83;;;;;;;;;;10408050;28;20181;-64
2023/01/01 07:12:00;;;;;;;7.47;3.40;;;;;;;;;;10407502;28;20244;-63
2023/01/01 07:17:01;;;;;;;5.22;2.30;;;;;;;;;;10407081;28;20200;-63
2023/01/01 07:22:01;;;;;;;4.63;2.88;;;;;;;;;;10407426;28;20220;-62
2023/01/01 07:27:01;;;;;;;6.78;2.53;;;;;;;;;;10405358;28;20192;-63
2023/01/01 07:32:02;;;;;;;3.85;2.53;;;;;;;;;;10406896;28;20201;-63
2023/01/01 07:37:02;;;;;;;6.35;2.72;;;;;;;;;;10407258;28;20630;-63
2023/01/01 07:42:03;;;;;;;3.92;2.60;;;;;;;;;;10408265;28;20238;-63
2023/01/01 07:47:04;;;;;;;4.60;2.80;;;;;;;;;;10405661;28;20991;-63
2023/01/01 07:52:04;;;;;;;4.28;2.83;;;;;;;;;;10406704;28;20251;-63
2023/01/01 07:57:04;;;;;;;6.88;2.78;;;;;;;;;;10406366;28;20226;-63
2023/01/01 08:02:04;;;;;;;8.77;2.85;;;;;;;;;;10401724;28;20220;-63
2023/01/01 08:07:05;;;;;;;4.53;3.05;;;;;;;;;;10371822;28;20200;-63
2023/01/01 08:12:05;;;;;;;4.88;2.47;;;;;;;;;;10373436;28;20237;-63
2023/01/01 08:17:05;;;;;;;11.45;3.13;;;;;;;;;;10372974;28;20636;-63
2023/01/01 08:22:05;;;;;;;9.63;2.92;;;;;;;;;;10372630;28;20472;-64
2023/01/01 08:27:05;;;;;;;8.88;4.90;;;;;;;;;;10372418;28;20193;-64
2023/01/01 08:32:06;;;;;;;13.38;6.88;;;;;;;;;;10372696;28;20210;-64
2023/01/01 08:37:10;;;;;;;8.32;3.30;;;;;;;;;;10372960;28;20221;-63
2023/01/01 08:42:10;;;;;;;10.23;4.85;;;;;;;;;;10372963;28;20718;-66
2023/01/01 08:47:17;;;;;;;5.30;3.55;;;;;;;;;;10371054;28;20197;-65
2023/01/01 08:52:18;;;;;;;6.40;3.30;;;;;;;;;;10371784;28;20209;-63
2023/01/01 08:57:18;;;;;;;5.25;2.50;;;;;;;;;;10371412;28;20193;-64
2023/01/01 09:02:18;;;;;;;7.63;2.85;;;;;;;;;;10370910;28;20309;-64
2023/01/01 09:07:19;;;;;;;6.93;2.70;;;;;;;;;;10370324;28;20311;-64
2023/01/01 09:12:19;;;;;;;11.02;2.80;;;;;;;;;;10370573;28;20239;-65
2023/01/01 09:17:19;;;;;;;7.30;2.80;;;;;;;;;;10369599;28;20221;-64
2023/01/01 09:22:20;;;;;;;5.80;2.47;;;;;;;;;;10378678;28;20607;-64
2023/01/01 09:27:21;;;;;;;3.97;2.20;;;;;;;;;;10358863;28;20232;-63
2023/01/01 09:32:22;;;;;;;4.20;2.10;;;;;;;;;;10369712;28;20304;-63
2023/01/01 09:37:22;;;;;;;8.23;2.78;;;;;;;;;;10369629;28;20674;-63
2023/01/01 09:42:41;;;;;;;3.00;1.88;;;;;;;;;;10369764;28;20225;-63
2023/01/01 09:47:44;;;;;;;5.57;2.70;;;;;;;;;;10369808;28;20234;-64
2023/01/01 09:52:47;;;;;;;3.95;2.60;;;;;;;;;;10368729;28;20267;-64
2023/01/01 09:57:47;;;;;;;5.30;2.50;;;;;;;;;;10369136;28;20255;-64
2023/01/01 10:03:09;;;;;;;10.07;2.80;;;;;;;;;;10369601;28;20582;-64
2023/01/01 10:08:28;;;;;;;4.28;2.17;;;;;;;;;;10369045;28;20276;-63
2023/01/01 10:13:35;;;;;;;5.57;2.55;;;;;;;;;;10369118;28;20298;-65
2023/01/01 10:18:37;;;;;;;6.35;2.15;;;;;;;;;;10368306;28;20186;-66
2023/01/01 10:23:40;;;;;;;8.10;3.35;;;;;;;;;;10368085;28;20256;-66
2023/01/01 10:28:56;;;;;;;11.93;4.32;;;;;;;;;;10404181;28;20216;-65
2023/01/01 10:33:56;;;;;;;4.85;2.50;;;;;;;;;;10408456;28;20209;-63
2023/01/01 10:38:56;;;;;;;8.68;2.88;;;;;;;;;;10409684;28;20303;-64
2023/01/01 10:43:57;;;;;;;7.70;2.97;;;;;;;;;;10408934;28;20228;-63
2023/01/01 10:49:03;;;;;;;7.10;2.33;;;;;;;;;;10408409;28;20200;-63
2023/01/01 10:54:03;;;;;;;7.68;1.98;;;;;;;;;;10408155;28;20263;-62
2023/01/01 10:59:03;;;;;;;10.20;3.70;;;;;;;;;;10408535;28;20216;-62
2023/01/01 11:04:06;;;;;;;8.73;2.55;;;;;;;;;;10407657;28;20486;-63
2023/01/01 11:09:25;;;;;;;11.10;3.70;;;;;;;;;;10408671;28;20690;-63
2023/01/01 11:14:36;;;;;;;6.20;2.65;;;;;;;;;;10406430;28;20237;-63
2023/01/01 11:19:38;;;;;;;8.73;3.58;;;;;;;;;;10407736;28;20679;-64
2023/01/01 11:24:38;;;;;;;8.18;2.92;;;;;;;;;;10407581;28;20227;-64
2023/01/01 11:29:38;;;;;;;8.18;3.67;;;;;;;;;;10408043;28;20188;-65
2023/01/01 11:34:40;;;;;;;7.78;2.95;;;;;;;;;;10407362;28;20208;-64
2023/01/01 11:39:42;;;;;;;7.45;3.03;;;;;;;;;;10407611;28;20196;-64
2023/01/01 11:44:44;;;;;;;8.57;3.40;;;;;;;;;;10406702;28;20266;-63
2023/01/01 11:49:44;;;;;;;12.50;3.42;;;;;;;;;;10407091;28;20188;-62
2023/01/01 11:54:45;;;;;;;6.13;3.50;;;;;;;;;;10406715;28;20220;-62
2023/01/01 11:59:51;;;;;;;6.45;2.38;;;;;;;;;;10408230;28;20246;-62
2023/01/01 12:04:59;;;;;;;5.63;2.97;;;;;;;;;;10406643;28;20220;-62
2023/01/01 12:10:16;;;;;;;11.40;3.78;;;;;;;;;;10407672;28;20296;-63
2023/01/01 12:15:23;;;;;;;9.80;2.80;;;;;;;;;;10405806;28;20240;-62
2023/01/01 12:20:39;;;;;;;10.27;3.38;;;;;;;;;;10407012;28;20188;-63
2023/01/01 12:25:43;;;;;;;6.55;3.10;;;;;;;;;;10406050;28;20729;-63
2023/01/01 12:31:02;;;;;;;13.25;4.18;;;;;;;;;;10406476;28;20193;-62
2023/01/01 12:36:10;;;;;;;8.55;3.85;;;;;;;;;;10405621;28;20211;-62
2023/01/01 12:41:28;;;;;;;11.27;5.15;;;;;;;;;;10406676;28;20223;-63
2023/01/01 12:46:43;;;;;;;9.50;2.63;;;;;;;;;;10405331;28;20548;-64
2023/01/01 12:51:53;;;;;;;8.82;3.08;;;;;;;;;;10410401;28;20578;-63
2023/01/01 12:56:59;;;;;;;7.55;3.70;;;;;;;;;;10412859;28;20185;-63
2023/01/01 13:02:00;;;;;;;54.22;25.00;;;;;;;;;;10412939;28;20250;-64
2023/01/01 13:07:04;;;;;;;10.85;4.70;;;;;;;;;;10412967;28;20243;-63
2023/01/01 13:12:08;;;;;;;9.90;4.95;;;;;;;;;;10412936;28;20334;-63
2023/01/01 13:17:22;;;;;;;9.27;3.20;;;;;;;;;;10411580;28;20180;-64
2023/01/01 13:22:24;;;;;;;6.40;2.58;;;;;;;;;;10406390;28;20220;-64
2023/01/01 13:27:43;;;;;;;8.48;3.15;;;;;;;;;;10370375;28;20192;-64
2023/01/01 13:33:06;;;;;;;10.07;2.47;;;;;;;;;;10371223;28;20699;-64
2023/01/01 13:38:25;;;;;;;27.50;12.70;;;;;;;;;;10370360;28;20189;-63
2023/01/01 13:43:26;;;;;;;21.73;7.55;;;;;;;;;;10370219;28;20274;-63
2023/01/01 13:48:33;;;;;;;9.68;3.00;;;;;;;;;;10369965;28;20204;-63
2023/01/01 13:53:48;;;;;;;12.05;3.50;;;;;;;;;;10369825;28;20205;-63
2023/01/01 13:58:57;;;;;;;5.32;2.67;;;;;;;;;;10369439;28;20243;-63
2023/01/01 14:03:58;;;;;;;11.88;3.15;;;;;;;;;;10369154;28;20229;-63
2023/01/01 14:09:04;;;;;;;6.90;2.55;;;;;;;;;;10370050;28;20189;-63
2023/01/01 14:14:23;;;;;;;7.18;2.78;;;;;;;;;;10368767;28;20237;-64
2023/01/01 14:19:23;;;;;;;7.40;3.00;;;;;;;;;;10369576;28;20193;-64
2023/01/01 14:24:25;;;;;;;13.00;3.42;;;;;;;;;;10367956;28;20244;-63
2023/01/01 14:29:27;;;;;;;5.57;1.98;;;;;;;;;;10368815;28;20189;-62
2023/01/01 14:34:31;;;;;;;11.02;2.80;;;;;;;;;;10368751;28;20240;-63
2023/01/01 14:39:33;;;;;;;9.63;2.90;;;;;;;;;;10369334;28;20232;-63
2023/01/01 14:44:35;;;;;;;7.20;2.85;;;;;;;;;;10367203;28;20323;-63
2023/01/01 14:49:38;;;;;;;15.52;4.70;;;;;;;;;;10368262;28;20220;-63
2023/01/01 14:54:40;;;;;;;12.25;5.53;;;;;;;;;;10367029;28;20213;-64
2023/01/01 14:59:46;;;;;;;9.52;3.28;;;;;;;;;;10368151;28;20217;-63
2023/01/01 15:04:46;;;;;;;9.82;3.15;;;;;;;;;;10367564;28;20729;-64
2023/01/01 15:09:47;;;;;;;18.48;6.05;;;;;;;;;;10366251;28;20264;-64
2023/01/01 15:14:49;;;;;;;17.33;8.65;;;;;;;;;;10364958;28;20244;-64
2023/01/01 15:20:22;;;;;;;17.00;7.30;;;;;;;;;;10366214;28;20537;-63
2023/01/01 15:25:22;;;;;;;17.70;7.50;;;;;;;;;;10322573;28;20351;-63
2023/01/01 15:30:28;;;;;;;29.50;14.68;;;;;;;;;;10366472;28;20197;-63
2023/01/01 15:35:30;;;;;;;19.50;7.38;;;;;;;;;;10367137;28;20206;-63
2023/01/01 15:40:32;;;;;;;28.90;12.18;;;;;;;;;;10365629;28;20671;-63
2023/01/01 15:45:36;;;;;;;31.05;14.80;;;;;;;;;;10365346;28;20602;-64
2023/01/01 15:50:53;;;;;;;90.38;45.25;;;;;;;;;;10328454;28;20221;-64
2023/01/01 15:55:58;;;;;;;12.57;4.70;;;;;;;;;;10324704;28;20205;-65
2023/01/01 16:01:00;;;;;;;10.07;4.13;;;;;;;;;;10326002;28;20558;-62
2023/01/01 16:06:00;;;;;;;8.18;2.50;;;;;;;;;;10325334;28;20570;-63
2023/01/01 16:11:01;;;;;;;8.93;3.17;;;;;;;;;;10324408;28;20190;-63
2023/01/01 16:16:01;;;;;;;11.32;5.25;;;;;;;;;;10323390;28;20989;-64
2023/01/01 16:21:03;;;;;;;8.65;2.90;;;;;;;;;;10325449;28;20308;-63
2023/01/01 16:26:03;;;;;;;10.80;3.97;;;;;;;;;;10326560;28;20272;-64
2023/01/01 16:31:03;;;;;;;15.63;3.95;;;;;;;;;;10333256;28;20186;-63
2023/01/01 16:36:03;;;;;;;8.98;3.08;;;;;;;;;;10332849;28;20202;-63
2023/01/01 16:41:04;;;;;;;11.93;3.08;;;;;;;;;;10332724;28;20221;-64
2023/01/01 16:46:05;;;;;;;12.02;6.00;;;;;;;;;;10331246;28;20228;-64
2023/01/01 16:51:05;;;;;;;11.57;4.40;;;;;;;;;;10331286;28;20217;-65
2023/01/01 16:56:07;;;;;;;13.40;7.70;;;;;;;;;;10339915;28;20641;-64
2023/01/01 17:01:08;;;;;;;11.50;3.90;;;;;;;;;;10385922;28;20565;-64
2023/01/01 17:06:09;;;;;;;14.27;7.32;;;;;;;;;;10389858;28;20214;-64
2023/01/01 17:11:12;;;;;;;33.05;14.52;;;;;;;;;;10387061;28;20627;-64
2023/01/01 17:16:15;;;;;;;10.68;3.15;;;;;;;;;;10357010;28;20686;-64
2023/01/01 17:21:15;;;;;;;9.10;4.05;;;;;;;;;;10371182;28;20294;-64
2023/01/01 17:26:19;;;;;;;5.28;2.17;;;;;;;;;;10369387;28;20190;-63
2023/01/01 17:31:21;;;;;;;8.07;2.70;;;;;;;;;;10369522;28;20185;-63
2023/01/01 17:36:21;;;;;;;7.03;2.75;;;;;;;;;;10367273;28;20198;-64
2023/01/01 17:41:21;;;;;;;7.75;4.53;;;;;;;;;;10368631;28;20216;-63
2023/01/01 17:46:27;;;;;;;13.05;3.38;;;;;;;;;;10367574;28;20212;-64
2023/01/01 17:51:27;;;;;;;7.68;2.83;;;;;;;;;;10368094;28;20205;-64
2023/01/01 17:56:27;;;;;;;6.78;2.70;;;;;;;;;;10368071;28;20197;-63
2023/01/01 18:01:33;;;;;;;12.18;3.03;;;;;;;;;;10368953;28;20229;-63
2023/01/01 18:06:34;;;;;;;16.95;8.65;;;;;;;;;;10367011;28;20280;-63
2023/01/01 18:11:35;;;;;;;14.35;7.10;;;;;;;;;;10367958;28;20242;-63
2023/01/01 18:16:37;;;;;;;20.38;9.20;;;;;;;;;;10376020;28;20190;-63
2023/01/01 18:21:37;;;;;;;15.95;9.80;;;;;;;;;;10372505;28;20371;-63
2023/01/01 18:26:37;;;;;;;18.95;9.02;;;;;;;;;;10366532;28;20276;-63
2023/01/01 18:31:37;;;;;;;25.70;11.85;;;;;;;;;;10366923;28;20295;-63
2023/01/01 18:36:38;;;;;;;10.55;6.80;;;;;;;;;;10366368;28;20189;-63
2023/01/01 18:41:39;;;;;;;24.40;9.75;;;;;;;;;;10368488;28;20221;-63
2023/01/01 18:46:39;;;;;;;26.40;10.60;;;;;;;;;;10365489;28;20193;-62
2023/01/01 18:51:39;;;;;;;17.23;6.75;;;;;;;;;;10365941;28;20232;-63
2023/01/01 18:56:39;;;;;;;25.15;10.63;;;;;;;;;;10365752;28;20265;-63
2023/01/01 19:01:43;;;;;;;21.52;9.18;;;;;;;;;;10365798;28;20217;-63
2023/01/01 19:06:43;;;;;;;20.42;8.05;;;;;;;;;;10364209;28;20182;-63
2023/01/01 19:11:43;;;;;;;10.77;3.05;;;;;;;;;;10364744;28;20241;-63
2023/01/01 19:16:44;;;;;;;14.32;4.60;;;;;;;;;;10364574;28;20189;-63
2023/01/01 19:21:45;;;;;;;7.55;3.13;;;;;;;;;;10365043;28;20308;-63
2023/01/01 19:26:45;;;;;;;9.65;3.72;;;;;;;;;;10365269;28;20834;-63
2023/01/01 19:31:47;;;;;;;16.48;5.78;;;;;;;;;;10365649;28;20372;-63
2023/01/01 19:36:47;;;;;;;9.82;3.28;;;;;;;;;;10363858;28;20298;-63
2023/01/01 19:41:47;;;;;;;15.38;3.63;;;;;;;;;;10364993;28;20232;-63
2023/01/01 19:46:47;;;;;;;9.98;3.22;;;;;;;;;;10363609;28;20193;-63
2023/01/01 19:51:49;;;;;;;9.88;3.95;;;;;;;;;;10364250;28;20205;-64
2023/01/01 19:56:50;;;;;;;8.15;3.35;;;;;;;;;;10364427;28;20613;-62
2023/01/01 20:01:50;;;;;;;9.32;3.72;;;;;;;;;;10366220;28;20307;-60
2023/01/01 20:06:50;;;;;;;8.60;3.25;;;;;;;;;;10372663;28;20185;-64
2023/01/01 20:11:50;;;;;;;6.93;3.30;;;;;;;;;;10371561;28;20225;-63
2023/01/01 20:16:52;;;;;;;22.73;9.10;;;;;;;;;;10370973;28;20584;-63
2023/01/01 20:22:10;;;;;;;19.88;5.07;;;;;;;;;;10371983;28;20312;-63
2023/01/01 20:27:11;;;;;;;12.68;4.55;;;;;;;;;;10372288;28;20613;-63
2023/01/01 20:32:12;;;;;;;8.70;3.05;;;;;;;;;;10380554;28;20268;-63
2023/01/01 20:42:31;;;;;;;11.43;2.97;;;;;;;;;;10388600;28;20226;-62
2023/01/01 20:47:31;;;;;;;17.88;2.85;;;;;;;;;;10371292;28;20596;-62
2023/01/01 20:52:31;;;;;;;5.97;3.20;;;;;;;;;;10369613;28;20223;-62
2023/01/01 20:57:32;;;;;;;9.95;3.25;;;;;;;;;;10370104;28;20197;-62
2023/01/01 21:02:32;;;;;;;6.45;2.60;;;;;;;;;;10370706;28;20236;-62
2023/01/01 21:07:32;;;;;;;9.95;2.50;;;;;;;;;;10370144;28;20236;-63
2023/01/01 21:12:34;;;;;;;8.95;3.13;;;;;;;;;;10368934;28;20237;-62
2023/01/01 21:17:35;;;;;;;8.95;3.28;;;;;;;;;;10368966;28;20213;-62
2023/01/01 21:22:35;;;;;;;6.95;2.58;;;;;;;;;;10369860;28;20328;-63
2023/01/01 21:27:36;;;;;;;11.68;3.05;;;;;;;;;;10368616;28;20255;-62
2023/01/01 21:32:40;;;;;;;6.68;2.83;;;;;;;;;;10369660;28;20209;-63
2023/01/01 21:37:46;;;;;;;7.60;3.00;;;;;;;;;;10367963;28;20193;-62
2023/01/01 21:42:52;;;;;;;6.82;2.17;;;;;;;;;;10368201;28;20225;-62
2023/01/01 21:47:52;;;;;;;9.68;2.80;;;;;;;;;;10366151;28;20193;-61
2023/01/01 21:53:00;;;;;;;6.78;3.03;;;;;;;;;;10368224;28;20209;-62
2023/01/01 21:59:24;;;;;;;8.68;3.28;;;;;;;;;;10368140;28;20201;-61
2023/01/01 22:03:21;;;;;;;12.07;3.00;;;;;;;;;;10368699;28;20225;-62
2023/01/01 22:08:22;;;;;;;10.73;3.40;;;;;;;;;;10368359;28;20640;-62
2023/01/01 22:13:23;;;;;;;9.77;4.35;;;;;;;;;;10366539;28;20264;-62
2023/01/01 22:18:25;;;;;;;9.57;3.67;;;;;;;;;;10367871;28;20543;-62
2023/01/01 22:23:36;;;;;;;14.27;4.30;;;;;;;;;;10366772;28;20229;-62
2023/01/01 22:28:40;;;;;;;9.60;3.60;;;;;;;;;;10367985;28;20193;-63
2023/01/01 22:33:41;;;;;;;16.00;3.95;;;;;;;;;;10367500;28;20213;-61
2023/01/01 22:38:41;;;;;;;8.70;4.43;;;;;;;;;;10366491;28;20181;-62
2023/01/01 22:43:44;;;;;;;7.80;4.05;;;;;;;;;;10366141;28;20228;-62
2023/01/01 22:48:44;;;;;;;6.75;3.67;;;;;;;;;;10394140;28;20200;-61
2023/01/01 22:53:44;;;;;;;9.70;4.10;;;;;;;;;;10408170;28;20234;-62
2023/01/01 22:58:44;;;;;;;8.80;4.20;;;;;;;;;;10409275;28;20188;-62
2023/01/01 23:03:45;;;;;;;8.32;3.67;;;;;;;;;;10408028;28;20224;-62
2023/01/01 23:08:45;;;;;;;11.63;3.45;;;;;;;;;;10407742;28;20200;-62
2023/01/01 23:19:06;;;;;;;8.20;2.80;;;;;;;;;;10407738;28;20435;-61
2023/01/01 23:24:07;;;;;;;7.72;3.33;;;;;;;;;;10406923;28;20216;-61
2023/01/01 23:29:08;;;;;;;7.15;3.13;;;;;;;;;;10408134;28;20311;-61
2023/01/01 23:34:08;;;;;;;7.38;2.70;;;;;;;;;;10406190;28;20350;-62
2023/01/01 23:39:08;;;;;;;7.60;2.70;;;;;;;;;;10406042;28;20773;-61
2023/01/01 23:44:09;;;;;;;9.20;3.40;;;;;;;;;;10406641;28;20634;-60
2023/01/01 23:49:09;;;;;;;8.93;3.00;;;;;;;;;;10409444;28;20254;-62
2023/01/01 23:54:09;;;;;;;8.27;2.85;;;;;;;;;;10416322;28;20205;-63
2023/01/01 23:59:10;;;;;;;4.65;3.05;;;;;;;;;;10409449;28;20185;-62
